Welcome to Northern Hawkes Bay. New Zealand.
PWS Header
      nz Flag



Hit Counter


W3C Valid W3C Valid logo


    Wairoa

Select any of the Stations below to visit their websites.










Historic Data from Weather Underground
Select the location of interest below. Wairoa is the default. Please have patience, this Data is slow to load in.
Northern Hawkes Bay Historical Data
Daily Summary for July 10, 2017 Units:  Metric    English   Both
« Previous Day
Next Day »
Daily Weekly Monthly Yearly Custom
  High: Low: Average:
Temperature: 16.1 °C 5.6 °C 10.2 °C
Dew Point: 11.2 °C 5.4 °C 8.8 °C
Humidity: 99% 63% 91%
Wind Speed: 28.0km/h 0.0km/h 6.4km/h
Wind Gust: 41.7km/h - -
Wind- - West
Pressure: 1012.1 hPa 1003.9 hPa -
Precipitation: 8.9 mm    
Historical Graphs
 
 
Tabular Data for July 10, 2017
Time Temperature Dew Point Pressure Wind Wind Speed Wind Gust Humidity Rainfall Rate (Hourly) solar
00:01 10.8 °C 10.3 °C 1004.3 hPa SSW 1.1 km/h 8.7 km/h 97% 2.0 mm 0 W/m2
00:06 10.8 °C 10.5 °C 1004.3 hPa WSW 2.6 km/h 5.0 km/h 98% 2.0 mm 0 W/m2
00:11 10.7 °C 10.4 °C 1004.3 hPa Calm   3.5 km/h 98% 1.8 mm 0 W/m2
00:16 10.7 °C 10.4 °C 1003.9 hPa West 1.1 km/h 3.5 km/h 98% 1.5 mm 0 W/m2
00:21 10.7 °C 10.4 °C 1003.9 hPa West 1.1 km/h 3.5 km/h 98% 1.5 mm 0 W/m2
00:26 10.6 °C 10.3 °C 1004.3 hPa Calm   3.5 km/h 98% 1.5 mm 0 W/m2
00:31 10.5 °C 10.2 °C 1004.3 hPa Calm   3.5 km/h 98% 1.5 mm 0 W/m2
00:36 10.5 °C 10.2 °C 1004.3 hPa Calm   1.1 km/h 98% 1.0 mm 0 W/m2
00:41 10.5 °C 10.2 °C 1004.3 hPa Calm   1.1 km/h 98% 0.5 mm 0 W/m2
00:46 10.5 °C 10.2 °C 1004.3 hPa North 1.1 km/h 2.6 km/h 98% 0.5 mm 0 W/m2
00:51 10.5 °C 10.2 °C 1004.6 hPa North 1.1 km/h 2.6 km/h 98% 0.3 mm 0 W/m2
00:56 10.4 °C 10.1 °C 1004.3 hPa Calm   2.6 km/h 98% 0.0 mm 0 W/m2
01:01 10.4 °C 10.1 °C 1004.3 hPa NE 1.1 km/h 3.5 km/h 98% 0.0 mm 0 W/m2
01:06 10.4 °C 10.1 °C 1004.3 hPa NE 1.1 km/h 3.5 km/h 98% 0.0 mm 0 W/m2
01:11 10.4 °C 10.3 °C 1004.3 hPa Calm   3.5 km/h 99% 0.0 mm 0 W/m2
01:16 10.4 °C 10.3 °C 1004.6 hPa NE 2.6 km/h 5.0 km/h 99% 0.0 mm 0 W/m2
01:21 10.4 °C 10.3 °C 1004.3 hPa NE 2.6 km/h 5.0 km/h 99% 0.0 mm 0 W/m2
01:26 10.5 °C 10.3 °C 1004.6 hPa NNE 1.1 km/h 5.0 km/h 99% 0.0 mm 0 W/m2
01:31 10.5 °C 10.3 °C 1004.6 hPa NNW 2.6 km/h 3.5 km/h 99% 0.0 mm 0 W/m2
01:36 10.5 °C 10.3 °C 1005.0 hPa West 3.5 km/h 6.1 km/h 99% 0.0 mm 0 W/m2
01:41 10.9 °C 10.8 °C 1005.0 hPa SSW 9.7 km/h 21.9 km/h 99% 0.0 mm 0 W/m2
01:46 11.1 °C 10.8 °C 1005.0 hPa SSW 17.2 km/h 21.9 km/h 98% 0.0 mm 0 W/m2
01:51 11.2 °C 10.9 °C 1005.0 hPa South 15.8 km/h 20.9 km/h 98% 0.0 mm 0 W/m2
01:56 11.3 °C 11.0 °C 1005.0 hPa South 8.7 km/h 23.3 km/h 98% 0.3 mm 0 W/m2
02:01 11.3 °C 11.0 °C 1005.0 hPa South 7.2 km/h 23.3 km/h 98% 0.3 mm 0 W/m2
02:06 11.5 °C 11.2 °C 1005.0 hPa South 8.7 km/h 21.9 km/h 98% 0.5 mm 0 W/m2
02:11 11.5 °C 11.1 °C 1005.0 hPa South 11.1 km/h 21.9 km/h 97% 0.5 mm 0 W/m2
02:16 11.6 °C 11.0 °C 1005.3 hPa South 14.8 km/h 23.3 km/h 96% 0.5 mm 0 W/m2
02:21 11.7 °C 10.9 °C 1005.3 hPa South 12.2 km/h 25.6 km/h 95% 0.5 mm 0 W/m2
02:26 11.7 °C 10.9 °C 1005.3 hPa South 19.5 km/h 25.6 km/h 95% 0.5 mm 0 W/m2
02:44 11.8 °C 10.6 °C 1005.6 hPa South 13.4 km/h 19.5 km/h 92% 0.5 mm 0 W/m2
02:49 11.8 °C 10.6 °C 1005.6 hPa South 9.7 km/h 19.5 km/h 92% 0.5 mm 0 W/m2
02:54 11.7 °C 10.3 °C 1005.6 hPa South 7.2 km/h 17.2 km/h 91% 0.3 mm 0 W/m2
02:59 11.7 °C 10.3 °C 1005.6 hPa South 8.7 km/h 14.8 km/h 91% 0.3 mm 0 W/m2
03:04 11.7 °C 10.3 °C 1005.6 hPa SSW 6.1 km/h 12.2 km/h 91% 0.0 mm 0 W/m2
03:09 11.6 °C 10.2 °C 1005.6 hPa SSW 7.2 km/h 11.1 km/h 91% 0.0 mm 0 W/m2
03:14 11.5 °C 10.2 °C 1006.0 hPa SW 12.2 km/h 27.0 km/h 92% 0.0 mm 0 W/m2
03:19 11.3 °C 10.2 °C 1005.6 hPa SW 20.9 km/h 28.0 km/h 93% 0.0 mm 0 W/m2
03:24 11.2 °C 10.3 °C 1006.0 hPa SW 18.3 km/h 28.0 km/h 94% 0.0 mm 0 W/m2
03:29 11.2 °C 10.4 °C 1006.0 hPa SW 17.2 km/h 29.4 km/h 95% 0.0 mm 0 W/m2
03:34 11.3 °C 10.6 °C 1006.0 hPa SW 23.3 km/h 34.3 km/h 95% 0.0 mm 0 W/m2
03:39 11.2 °C 10.4 °C 1006.0 hPa SW 20.9 km/h 34.3 km/h 95% 0.0 mm 0 W/m2
03:44 11.1 °C 10.3 °C 1006.3 hPa SW 25.6 km/h 41.7 km/h 95% 0.0 mm 0 W/m2
03:49 10.9 °C 10.3 °C 1006.3 hPa WSW 23.3 km/h 41.7 km/h 96% 0.0 mm 0 W/m2
03:54 10.8 °C 10.1 °C 1006.3 hPa WSW 28.0 km/h 40.4 km/h 95% 0.0 mm 0 W/m2
03:59 10.7 °C 9.9 °C 1006.3 hPa WSW 17.2 km/h 40.4 km/h 95% 0.0 mm 0 W/m2
04:04 10.6 °C 10.0 °C 1006.3 hPa WSW 18.3 km/h 35.6 km/h 96% 0.0 mm 0 W/m2
04:09 10.5 °C 9.9 °C 1006.3 hPa West 15.8 km/h 33.1 km/h 96% 0.0 mm 0 W/m2
04:14 10.5 °C 10.1 °C 1006.7 hPa WSW 19.5 km/h 33.1 km/h 97% 0.0 mm 0 W/m2
04:19 10.5 °C 10.1 °C 1006.7 hPa WSW 24.5 km/h 37.8 km/h 97% 0.0 mm 0 W/m2
04:24 10.5 °C 10.1 °C 1006.7 hPa WSW 18.3 km/h 37.8 km/h 97% 0.3 mm 0 W/m2
04:29 10.5 °C 10.1 °C 1006.7 hPa SW 18.3 km/h 37.8 km/h 97% 0.3 mm 0 W/m2
04:34 10.5 °C 10.1 °C 1006.7 hPa SW 18.3 km/h 34.3 km/h 97% 0.3 mm 0 W/m2
04:39 10.6 °C 10.0 °C 1006.7 hPa WSW 15.8 km/h 34.3 km/h 96% 0.3 mm 0 W/m2
04:44 10.6 °C 10.0 °C 1006.7 hPa WSW 18.3 km/h 30.6 km/h 96% 0.3 mm 0 W/m2
04:49 10.6 °C 9.8 °C 1006.7 hPa WSW 20.9 km/h 30.6 km/h 95% 0.3 mm 0 W/m2
04:54 10.5 °C 9.7 °C 1006.7 hPa WSW 20.9 km/h 33.1 km/h 95% 0.3 mm 0 W/m2
04:59 10.5 °C 9.7 °C 1007.0 hPa WSW 20.9 km/h 33.1 km/h 95% 0.5 mm 0 W/m2
05:04 10.6 °C 9.8 °C 1006.7 hPa WSW 12.2 km/h 27.0 km/h 95% 0.5 mm 0 W/m2
05:09 10.7 °C 9.8 °C 1007.0 hPa WSW 20.9 km/h 27.0 km/h 94% 0.5 mm 0 W/m2
05:14 10.8 °C 9.9 °C 1007.0 hPa West 18.3 km/h 30.6 km/h 94% 0.5 mm 0 W/m2
05:19 10.8 °C 9.9 °C 1007.0 hPa WSW 13.4 km/h 30.6 km/h 94% 0.3 mm 0 W/m2
05:24 10.9 °C 10.0 °C 1007.3 hPa WSW 15.8 km/h 25.6 km/h 94% 0.3 mm 0 W/m2
05:29 10.9 °C 9.8 °C 1007.0 hPa WSW 13.4 km/h 28.0 km/h 93% 0.3 mm 0 W/m2
05:34 10.9 °C 9.8 °C 1007.3 hPa WSW 17.2 km/h 28.0 km/h 93% 0.3 mm 0 W/m2
05:39 10.9 °C 9.7 °C 1007.3 hPa WSW 8.7 km/h 28.0 km/h 92% 0.3 mm 0 W/m2
05:49 10.7 °C 9.4 °C 1007.3 hPa West 9.7 km/h 23.3 km/h 92% 0.3 mm 0 W/m2
05:54 10.7 °C 9.4 °C 1007.3 hPa West 8.7 km/h 23.3 km/h 92% 0.3 mm 0 W/m2
05:59 10.6 °C 9.3 °C 1007.3 hPa WSW 8.7 km/h 19.5 km/h 92% 0.0 mm 0 W/m2
06:04 10.6 °C 9.3 °C 1007.7 hPa WSW 12.2 km/h 19.5 km/h 92% 0.0 mm 0 W/m2
06:14 10.7 °C 9.3 °C 1007.7 hPa WSW 12.2 km/h 20.9 km/h 91% 0.0 mm 0 W/m2
06:19 10.7 °C 9.3 °C 1008.0 hPa WSW 11.1 km/h 20.9 km/h 91% 0.0 mm 0 W/m2
06:24 10.7 °C 9.1 °C 1008.0 hPa West 12.2 km/h 24.5 km/h 90% 0.0 mm 0 W/m2
06:29 10.7 °C 9.1 °C 1008.0 hPa WNW 14.8 km/h 24.5 km/h 90% 0.0 mm 0 W/m2
06:34 10.7 °C 8.9 °C 1008.0 hPa WNW 14.8 km/h 24.5 km/h 89% 0.0 mm 0 W/m2
06:39 10.7 °C 8.9 °C 1008.4 hPa WSW 19.5 km/h 27.0 km/h 89% 0.0 mm 0 W/m2
06:44 10.7 °C 8.9 °C 1008.0 hPa WSW 13.4 km/h 27.0 km/h 89% 0.0 mm 0 W/m2
06:49 10.7 °C 8.9 °C 1008.4 hPa West 11.1 km/h 27.0 km/h 89% 0.0 mm 0 W/m2
06:54 10.7 °C 8.9 °C 1008.4 hPa West 9.7 km/h 23.3 km/h 89% 0.0 mm 0 W/m2
06:59 10.7 °C 8.9 °C 1008.4 hPa West 9.7 km/h 23.3 km/h 89% 0.0 mm 0 W/m2
07:04 10.7 °C 8.9 °C 1008.7 hPa WSW 6.1 km/h 21.9 km/h 89% 0.0 mm 0 W/m2
07:21 10.6 °C 8.9 °C 1008.7 hPa WSW 9.7 km/h 19.5 km/h 89% 0.0 mm 0 W/m2
07:26 10.6 °C 8.9 °C 1008.7 hPa West 13.4 km/h 18.3 km/h 89% 0.0 mm 0 W/m2
07:31 10.6 °C 8.9 °C 1009.0 hPa West 11.1 km/h 18.3 km/h 89% 0.0 mm 0 W/m2
07:36 10.5 °C 9.1 °C 1009.0 hPa West 15.8 km/h 20.9 km/h 91% 0.3 mm 0 W/m2
07:41 10.3 °C 9.2 °C 1009.4 hPa WSW 11.1 km/h 20.9 km/h 93% 1.3 mm 0 W/m2
07:46 10.2 °C 9.3 °C 1009.4 hPa WSW 8.7 km/h 20.9 km/h 94% 1.3 mm 0 W/m2
07:51 10.2 °C 9.3 °C 1009.4 hPa West 8.7 km/h 18.3 km/h 94% 1.3 mm 0 W/m2
07:56 10.3 °C 9.6 °C 1009.4 hPa WSW 8.7 km/h 18.3 km/h 95% 1.3 mm 0 W/m2
08:01 10.3 °C 9.6 °C 1009.4 hPa West 9.7 km/h 20.9 km/h 95% 1.3 mm 5 W/m2
08:06 10.4 °C 9.5 °C 1009.4 hPa West 9.7 km/h 23.3 km/h 94% 1.3 mm 10 W/m2
08:11 10.5 °C 9.6 °C 1009.4 hPa West 5.0 km/h 23.3 km/h 94% 1.3 mm 14 W/m2
08:16 10.5 °C 9.6 °C 1009.4 hPa West 6.1 km/h 14.8 km/h 94% 1.3 mm 16 W/m2
08:21 10.6 °C 9.7 °C 1009.4 hPa West 5.0 km/h 13.4 km/h 94% 1.3 mm 18 W/m2
08:26 10.6 °C 9.7 °C 1009.4 hPa West 3.5 km/h 13.4 km/h 94% 1.5 mm 21 W/m2
08:31 10.7 °C 9.8 °C 1009.7 hPa West 11.1 km/h 13.4 km/h 94% 1.5 mm 25 W/m2
08:36 10.7 °C 9.6 °C 1009.7 hPa West 7.2 km/h 13.4 km/h 93% 1.3 mm 30 W/m2
08:41 10.8 °C 9.7 °C 1009.7 hPa West 7.2 km/h 15.8 km/h 93% 0.3 mm 31 W/m2
08:46 10.8 °C 9.7 °C 1009.7 hPa West 8.7 km/h 17.2 km/h 93% 0.3 mm 28 W/m2
09:03 10.9 °C 9.7 °C 1010.0 hPa SW 6.1 km/h 14.8 km/h 92% 0.3 mm 37 W/m2
09:08 10.9 °C 9.5 °C 1010.0 hPa SW 12.2 km/h 17.2 km/h 91% 0.3 mm 42 W/m2
09:13 10.9 °C 9.5 °C 1010.4 hPa WSW 5.0 km/h 17.2 km/h 91% 0.3 mm 40 W/m2
09:18 10.8 °C 9.4 °C 1010.4 hPa WSW 12.2 km/h 17.2 km/h 91% 0.3 mm 46 W/m2
09:23 10.7 °C 9.4 °C 1010.4 hPa West 6.1 km/h 17.2 km/h 92% 0.3 mm 44 W/m2
09:28 10.7 °C 9.6 °C 1010.4 hPa WSW 6.1 km/h 15.8 km/h 93% 0.0 mm 45 W/m2
09:33 10.7 °C 9.6 °C 1010.7 hPa WSW 7.2 km/h 13.4 km/h 93% 0.0 mm 44 W/m2
09:38 10.7 °C 9.6 °C 1010.7 hPa West 6.1 km/h 13.4 km/h 93% 0.0 mm 37 W/m2
09:43 10.7 °C 9.6 °C 1010.7 hPa West 5.0 km/h 11.1 km/h 93% 0.0 mm 35 W/m2
09:48 10.7 °C 9.6 °C 1010.7 hPa West 2.6 km/h 17.2 km/h 93% 0.0 mm 48 W/m2
09:53 10.7 °C 9.6 °C 1011.1 hPa West 3.5 km/h 17.2 km/h 93% 0.0 mm 67 W/m2
09:58 10.8 °C 9.7 °C 1010.7 hPa West 2.6 km/h 8.7 km/h 93% 0.0 mm 82 W/m2
10:03 10.8 °C 9.7 °C 1010.7 hPa West 3.5 km/h 7.2 km/h 93% 0.3 mm 74 W/m2
10:08 10.8 °C 9.7 °C 1011.1 hPa West 6.1 km/h 12.2 km/h 93% 0.3 mm 104 W/m2
10:13 10.8 °C 9.7 °C 1011.1 hPa West 8.7 km/h 13.4 km/h 93% 0.5 mm 69 W/m2
10:18 10.7 °C 9.6 °C 1011.1 hPa West 3.5 km/h 13.4 km/h 93% 1.0 mm 23 W/m2
10:23 10.6 °C 9.5 °C 1011.4 hPa SW 2.6 km/h 13.4 km/h 93% 1.8 mm 9 W/m2
10:28 10.4 °C 9.5 °C 1011.4 hPa SSW 6.1 km/h 11.1 km/h 94% 2.8 mm 9 W/m2
10:33 10.1 °C 9.2 °C 1011.4 hPa SSW 8.7 km/h 12.2 km/h 94% 3.6 mm 11 W/m2
10:38 9.7 °C 8.9 °C 1011.7 hPa SW 9.7 km/h 15.8 km/h 95% 4.3 mm 16 W/m2
10:43 9.5 °C 8.9 °C 1011.4 hPa SW 7.2 km/h 17.2 km/h 96% 4.6 mm 23 W/m2
10:48 9.3 °C 8.7 °C 1011.4 hPa SW 2.6 km/h 17.2 km/h 96% 5.3 mm 32 W/m2
10:53 9.3 °C 8.7 °C 1011.7 hPa Calm   9.7 km/h 96% 5.3 mm 41 W/m2
10:58 9.3 °C 8.7 °C 1011.4 hPa Calm   3.5 km/h 96% 5.6 mm 45 W/m2
11:03 9.4 °C 8.9 °C 1011.4 hPa Calm   1.1 km/h 97% 5.3 mm 49 W/m2
11:08 9.5 °C 9.1 °C 1011.4 hPa ENE 1.1 km/h 1.1 km/h 97% 5.3 mm 54 W/m2
11:13 9.6 °C 9.2 °C 1011.4 hPa Calm   2.6 km/h 97% 5.1 mm 48 W/m2
11:18 9.6 °C 9.2 °C 1011.4 hPa East 1.1 km/h 2.6 km/h 97% 5.1 mm 50 W/m2
11:23 9.7 °C 9.2 °C 1011.1 hPa Calm   3.5 km/h 97% 4.3 mm 76 W/m2
11:28 9.9 °C 9.4 °C 1011.1 hPa Calm   3.5 km/h 97% 3.3 mm 91 W/m2
11:33 10.0 °C 9.4 °C 1011.1 hPa West 1.1 km/h 3.5 km/h 96% 2.3 mm 97 W/m2
11:38 10.1 °C 9.5 °C 1011.1 hPa WSW 2.6 km/h 3.5 km/h 96% 1.8 mm 95 W/m2
11:43 10.3 °C 9.8 °C 1011.1 hPa WSW 5.0 km/h 6.1 km/h 97% 1.5 mm 90 W/m2
11:48 10.3 °C 9.7 °C 1011.1 hPa WSW 1.1 km/h 6.1 km/h 96% 0.5 mm 86 W/m2
11:53 10.4 °C 9.8 °C 1011.1 hPa WSW 1.1 km/h 6.1 km/h 96% 0.5 mm 67 W/m2
11:58 10.4 °C 9.8 °C 1010.7 hPa WNW 2.6 km/h 3.5 km/h 96% 0.3 mm 79 W/m2
12:03 10.5 °C 9.9 °C 1010.7 hPa Calm   3.5 km/h 96% 0.3 mm 97 W/m2
12:08 10.7 °C 10.1 °C 1010.7 hPa Calm   3.5 km/h 96% 0.3 mm 114 W/m2
12:13 10.8 °C 10.2 °C 1010.7 hPa WSW 1.1 km/h 3.5 km/h 96% 0.3 mm 146 W/m2
12:18 11.1 °C 10.3 °C 1010.7 hPa Calm   3.5 km/h 95% 0.0 mm 145 W/m2
12:23 11.4 °C 10.6 °C 1010.7 hPa WNW 2.6 km/h 5.0 km/h 95% 0.0 mm 159 W/m2
12:28 11.7 °C 10.8 °C 1010.7 hPa NW 5.0 km/h 6.1 km/h 94% 0.3 mm 166 W/m2
12:33 11.8 °C 10.7 °C 1010.7 hPa NW 7.2 km/h 9.7 km/h 93% 0.3 mm 180 W/m2
12:38 11.5 °C 10.2 °C 1011.1 hPa NW 6.1 km/h 9.7 km/h 92% 0.3 mm 173 W/m2
12:43 11.4 °C 10.0 °C 1010.7 hPa NNW 5.0 km/h 9.7 km/h 91% 0.3 mm 170 W/m2
12:48 11.4 °C 9.8 °C 1010.7 hPa NNW 5.0 km/h 8.7 km/h 90% 0.3 mm 155 W/m2
12:53 11.6 °C 10.0 °C 1010.7 hPa NNW 2.6 km/h 8.7 km/h 90% 0.3 mm 154 W/m2
12:58 11.8 °C 10.1 °C 1010.7 hPa NNW 2.6 km/h 8.7 km/h 89% 0.3 mm 150 W/m2
13:03 11.9 °C 10.2 °C 1010.7 hPa NNW 1.1 km/h 6.1 km/h 89% 0.3 mm 130 W/m2
13:08 12.0 °C 9.9 °C 1010.7 hPa NW 2.6 km/h 7.2 km/h 87% 0.3 mm 126 W/m2
13:13 12.2 °C 10.1 °C 1010.4 hPa NW 5.0 km/h 7.2 km/h 87% 0.3 mm 157 W/m2
13:18 12.7 °C 10.4 °C 1010.4 hPa NW 3.5 km/h 7.2 km/h 86% 0.3 mm 157 W/m2
13:23 13.0 °C 10.6 °C 1010.7 hPa WNW 2.6 km/h 7.2 km/h 85% 0.3 mm 171 W/m2
13:28 12.9 °C 10.1 °C 1010.7 hPa WNW 2.6 km/h 7.2 km/h 83% 0.0 mm 127 W/m2
13:33 12.8 °C 9.8 °C 1010.4 hPa WNW 2.6 km/h 8.7 km/h 82% 0.0 mm 160 W/m2
13:38 12.8 °C 9.6 °C 1010.7 hPa WSW 6.1 km/h 8.7 km/h 81% 0.0 mm 189 W/m2
13:43 12.9 °C 9.7 °C 1010.4 hPa SW 5.0 km/h 9.7 km/h 81% 0.0 mm 196 W/m2
13:48 12.8 °C 9.6 °C 1010.4 hPa SW 5.0 km/h 9.7 km/h 81% 0.0 mm 157 W/m2
13:53 12.8 °C 9.6 °C 1010.7 hPa SW 5.0 km/h 9.7 km/h 81% 0.0 mm 136 W/m2
13:58 12.9 °C 9.6 °C 1010.4 hPa SSW 3.5 km/h 9.7 km/h 80% 0.0 mm 131 W/m2
14:03 13.2 °C 9.7 °C 1010.7 hPa SW 6.1 km/h 8.7 km/h 79% 0.0 mm 160 W/m2
14:08 13.5 °C 9.7 °C 1010.7 hPa WSW 6.1 km/h 8.7 km/h 78% 0.0 mm 157 W/m2
14:13 13.6 °C 9.7 °C 1010.7 hPa SW 6.1 km/h 11.1 km/h 77% 0.0 mm 205 W/m2
14:18 13.9 °C 9.9 °C 1010.4 hPa WSW 7.2 km/h 11.1 km/h 77% 0.0 mm 185 W/m2
14:23 14.1 °C 9.7 °C 1010.7 hPa WSW 7.2 km/h 9.7 km/h 75% 0.0 mm 240 W/m2
14:28 14.4 °C 9.8 °C 1010.7 hPa SW 7.2 km/h 9.7 km/h 74% 0.0 mm 229 W/m2
14:33 14.2 °C 9.6 °C 1010.7 hPa SW 7.2 km/h 9.7 km/h 74% 0.0 mm 220 W/m2
14:38 14.2 °C 9.6 °C 1010.7 hPa SW 7.2 km/h 11.1 km/h 74% 0.0 mm 184 W/m2
14:43 13.9 °C 9.6 °C 1010.7 hPa SW 2.6 km/h 11.1 km/h 75% 0.0 mm 174 W/m2
14:48 14.4 °C 9.8 °C 1010.7 hPa WSW 3.5 km/h 11.1 km/h 74% 0.0 mm 198 W/m2
14:53 14.7 °C 9.9 °C 1010.7 hPa WSW 5.0 km/h 8.7 km/h 73% 0.0 mm 189 W/m2
14:58 14.5 °C 9.5 °C 1010.4 hPa SW 1.1 km/h 11.1 km/h 72% 0.0 mm 182 W/m2
15:03 15.2 °C 10.0 °C 1010.4 hPa SW 2.6 km/h 11.1 km/h 71% 0.0 mm 174 W/m2
15:08 15.5 °C 9.6 °C 1010.7 hPa SW 6.1 km/h 7.2 km/h 68% 0.0 mm 165 W/m2
15:13 15.1 °C 9.0 °C 1010.7 hPa SW 5.0 km/h 8.7 km/h 67% 0.0 mm 158 W/m2
15:18 15.0 °C 9.2 °C 1010.7 hPa WSW 5.0 km/h 8.7 km/h 68% 0.0 mm 148 W/m2
15:23 14.8 °C 9.4 °C 1010.4 hPa WSW 2.6 km/h 7.2 km/h 70% 0.0 mm 139 W/m2
15:28 14.6 °C 9.0 °C 1010.4 hPa WSW 7.2 km/h 9.7 km/h 69% 0.0 mm 128 W/m2
15:33 14.3 °C 9.1 °C 1010.4 hPa WSW 5.0 km/h 9.7 km/h 71% 0.0 mm 121 W/m2
15:38 14.1 °C 8.9 °C 1010.7 hPa WSW 2.6 km/h 9.7 km/h 71% 0.0 mm 47 W/m2
15:43 13.8 °C 9.1 °C 1010.7 hPa WSW 2.6 km/h 7.2 km/h 73% 0.0 mm 63 W/m2
15:48 14.4 °C 9.6 °C 1010.4 hPa WSW 1.1 km/h 6.1 km/h 73% 0.0 mm 89 W/m2
15:53 14.9 °C 9.5 °C 1010.7 hPa West 2.6 km/h 5.0 km/h 70% 0.0 mm 79 W/m2
15:58 14.8 °C 9.2 °C 1010.4 hPa WSW 2.6 km/h 5.0 km/h 69% 0.0 mm 69 W/m2
16:03 15.1 °C 9.2 °C 1010.4 hPa WSW 1.1 km/h 5.0 km/h 68% 0.0 mm 61 W/m2
16:08 15.0 °C 8.7 °C 1010.4 hPa Calm   6.1 km/h 66% 0.0 mm 52 W/m2
16:13 15.3 °C 9.4 °C 1010.4 hPa Calm   6.1 km/h 68% 0.0 mm 45 W/m2
16:18 15.9 °C 9.8 °C 1010.4 hPa Calm   3.5 km/h 67% 0.0 mm 39 W/m2
16:23 16.0 °C 9.2 °C 1010.7 hPa Calm   2.6 km/h 64% 0.0 mm 35 W/m2
16:28 16.1 °C 9.3 °C 1010.4 hPa Calm   1.1 km/h 64% 0.0 mm 29 W/m2
16:33 16.1 °C 9.1 °C 1010.7 hPa Calm   1.1 km/h 63% 0.0 mm 23 W/m2
16:38 15.9 °C 9.1 °C 1010.4 hPa Calm   2.6 km/h 64% 0.0 mm 18 W/m2
16:43 15.2 °C 8.4 °C 1010.4 hPa Calm   2.6 km/h 64% 0.0 mm 9 W/m2
16:48 13.7 °C 7.9 °C 1010.4 hPa Calm   1.1 km/h 68% 0.0 mm 5 W/m2
16:53 12.6 °C 7.7 °C 1010.4 hPa Calm     72% 0.0 mm 3 W/m2
16:58 11.8 °C 7.3 °C 1010.7 hPa Calm     74% 0.0 mm 1 W/m2
17:04 11.0 °C 7.1 °C 1010.7 hPa Calm   1.1 km/h 77% 0.0 mm 0 W/m2
17:09 10.6 °C 7.5 °C 1010.7 hPa Calm   1.1 km/h 81% 0.0 mm 0 W/m2
17:14 10.2 °C 7.4 °C 1010.7 hPa Calm     83% 0.0 mm 0 W/m2
17:19 9.9 °C 7.7 °C 1010.7 hPa Calm     86% 0.0 mm 0 W/m2
17:24 9.7 °C 7.7 °C 1010.7 hPa North 1.1 km/h 2.6 km/h 87% 0.0 mm 0 W/m2
17:29 9.6 °C 7.7 °C 1010.7 hPa North 1.1 km/h 2.6 km/h 88% 0.0 mm 0 W/m2
17:34 9.3 °C 7.6 °C 1010.4 hPa NNW 2.6 km/h 3.5 km/h 89% 0.0 mm 0 W/m2
17:39 9.1 °C 7.6 °C 1010.7 hPa NW 2.6 km/h 5.0 km/h 90% 0.0 mm 0 W/m2
17:44 8.8 °C 7.6 °C 1010.7 hPa NW 2.6 km/h 5.0 km/h 92% 0.0 mm 0 W/m2
17:49 8.8 °C 7.7 °C 1010.7 hPa NW 1.1 km/h 5.0 km/h 93% 0.0 mm 0 W/m2
17:54 8.6 °C 7.7 °C 1010.7 hPa NNW 1.1 km/h 5.0 km/h 94% 0.0 mm 0 W/m2
17:59 8.4 °C 7.5 °C 1010.7 hPa North 1.1 km/h 2.6 km/h 94% 0.0 mm 0 W/m2
18:04 8.3 °C 7.6 °C 1011.1 hPa North 2.6 km/h 3.5 km/h 95% 0.0 mm 0 W/m2
18:09 8.2 °C 7.4 °C 1011.1 hPa NNW 2.6 km/h 3.5 km/h 95% 0.0 mm 0 W/m2
18:14 8.1 °C 7.3 °C 1011.1 hPa NNW 2.6 km/h 5.0 km/h 95% 0.0 mm 0 W/m2
18:19 8.1 °C 7.3 °C 1011.1 hPa NW 3.5 km/h 5.0 km/h 95% 0.0 mm 0 W/m2
18:24 8.3 °C 7.7 °C 1011.1 hPa NW 3.5 km/h 6.1 km/h 96% 0.0 mm 0 W/m2
18:29 8.2 °C 7.6 °C 1011.4 hPa NW 2.6 km/h 6.1 km/h 96% 0.0 mm 0 W/m2
18:34 8.2 °C 7.6 °C 1011.4 hPa NW 2.6 km/h 5.0 km/h 96% 0.0 mm 0 W/m2
18:39 8.1 °C 7.7 °C 1011.4 hPa NNW 2.6 km/h 5.0 km/h 97% 0.0 mm 0 W/m2
18:44 8.0 °C 7.6 °C 1011.4 hPa NNW 2.6 km/h 3.5 km/h 97% 0.0 mm 0 W/m2
18:49 7.9 °C 7.4 °C 1011.4 hPa North 2.6 km/h 3.5 km/h 97% 0.0 mm 0 W/m2
18:54 7.9 °C 7.4 °C 1011.4 hPa North 2.6 km/h 3.5 km/h 97% 0.0 mm 0 W/m2
18:59 7.8 °C 7.3 °C 1011.4 hPa North 2.6 km/h 3.5 km/h 97% 0.0 mm 0 W/m2
19:04 7.8 °C 7.3 °C 1011.4 hPa North 2.6 km/h 5.0 km/h 97% 0.0 mm 0 W/m2
19:09 7.7 °C 7.3 °C 1011.4 hPa NNW 3.5 km/h 5.0 km/h 97% 0.0 mm 0 W/m2
19:14 7.7 °C 7.3 °C 1011.4 hPa NW 3.5 km/h 5.0 km/h 97% 0.0 mm 0 W/m2
19:19 7.6 °C 7.2 °C 1011.4 hPa NW 2.6 km/h 5.0 km/h 97% 0.0 mm 0 W/m2
19:24 7.5 °C 7.1 °C 1011.4 hPa NNW 3.5 km/h 5.0 km/h 97% 0.0 mm 0 W/m2
19:29 7.4 °C 6.9 °C 1011.4 hPa North 2.6 km/h 5.0 km/h 97% 0.0 mm 0 W/m2
19:34 7.3 °C 6.8 °C 1011.4 hPa NNW 1.1 km/h 5.0 km/h 97% 0.0 mm 0 W/m2
19:39 7.2 °C 6.8 °C 1011.4 hPa North 5.0 km/h 6.1 km/h 97% 0.0 mm 0 W/m2
19:44 7.2 °C 6.8 °C 1011.4 hPa NNW 6.1 km/h 8.7 km/h 97% 0.0 mm 0 W/m2
19:49 7.1 °C 6.7 °C 1011.7 hPa NNW 5.0 km/h 8.7 km/h 97% 0.0 mm 0 W/m2
19:54 7.1 °C 6.7 °C 1011.4 hPa NNW 3.5 km/h 8.7 km/h 97% 0.0 mm 0 W/m2
19:59 7.1 °C 6.7 °C 1011.4 hPa NNW 2.6 km/h 7.2 km/h 97% 0.0 mm 0 W/m2
20:04 7.1 °C 6.7 °C 1011.4 hPa NNW 5.0 km/h 7.2 km/h 97% 0.0 mm 0 W/m2
20:09 7.0 °C 6.6 °C 1011.4 hPa NW 6.1 km/h 7.2 km/h 97% 0.0 mm 0 W/m2
20:14 6.9 °C 6.6 °C 1011.4 hPa NNW 5.0 km/h 7.2 km/h 98% 0.0 mm 0 W/m2
20:19 6.8 °C 6.5 °C 1011.7 hPa North 5.0 km/h 7.2 km/h 98% 0.0 mm 0 W/m2
20:24 6.7 °C 6.4 °C 1011.4 hPa NNW 5.0 km/h 7.2 km/h 98% 0.0 mm 0 W/m2
20:29 6.7 °C 6.4 °C 1011.7 hPa NW 5.0 km/h 7.2 km/h 98% 0.0 mm 0 W/m2
20:34 6.6 °C 6.3 °C 1011.7 hPa NW 5.0 km/h 7.2 km/h 98% 0.0 mm 0 W/m2
20:39 6.6 °C 6.3 °C 1011.7 hPa NW 5.0 km/h 7.2 km/h 98% 0.0 mm 0 W/m2
20:44 6.6 °C 6.3 °C 1011.7 hPa NW 5.0 km/h 8.7 km/h 98% 0.0 mm 0 W/m2
20:49 6.5 °C 6.2 °C 1011.7 hPa NNW 5.0 km/h 8.7 km/h 98% 0.0 mm 0 W/m2
20:54 6.5 °C 6.2 °C 1011.7 hPa NNW 5.0 km/h 8.7 km/h 98% 0.0 mm 0 W/m2
20:59 6.5 °C 6.2 °C 1011.7 hPa NNW 3.5 km/h 8.7 km/h 98% 0.0 mm 0 W/m2
21:04 6.5 °C 6.2 °C 1011.7 hPa NNW 5.0 km/h 8.7 km/h 98% 0.0 mm 0 W/m2
21:09 6.4 °C 6.1 °C 1011.7 hPa NW 6.1 km/h 8.7 km/h 98% 0.0 mm 0 W/m2
21:14 6.4 °C 6.1 °C 1011.7 hPa NW 5.0 km/h 9.7 km/h 98% 0.0 mm 0 W/m2
21:19 6.4 °C 6.1 °C 1011.7 hPa NNW 5.0 km/h 9.7 km/h 98% 0.0 mm 0 W/m2
21:24 6.3 °C 6.0 °C 1011.7 hPa NW 6.1 km/h 9.7 km/h 98% 0.0 mm 0 W/m2
21:29 6.3 °C 6.0 °C 1011.7 hPa NNW 6.1 km/h 9.7 km/h 98% 0.0 mm 0 W/m2
21:34 6.3 °C 6.0 °C 1011.7 hPa NNW 5.0 km/h 9.7 km/h 98% 0.0 mm 0 W/m2
21:39 6.3 °C 6.0 °C 1011.7 hPa NNW 7.2 km/h 9.7 km/h 98% 0.0 mm 0 W/m2
21:44 6.3 °C 6.0 °C 1011.7 hPa NW 5.0 km/h 9.7 km/h 98% 0.0 mm 0 W/m2
21:49 6.3 °C 6.0 °C 1012.1 hPa NNW 6.1 km/h 9.7 km/h 98% 0.0 mm 0 W/m2
21:54 6.3 °C 6.0 °C 1012.1 hPa NNW 7.2 km/h 9.7 km/h 98% 0.0 mm 0 W/m2
21:59 6.3 °C 6.0 °C 1011.7 hPa NNW 6.1 km/h 9.7 km/h 98% 0.0 mm 0 W/m2
22:04 6.3 °C 6.0 °C 1012.1 hPa NNW 6.1 km/h 11.1 km/h 98% 0.0 mm 0 W/m2
22:09 6.3 °C 6.0 °C 1012.1 hPa NNW 6.1 km/h 11.1 km/h 98% 0.0 mm 0 W/m2
22:14 6.2 °C 5.9 °C 1011.7 hPa NNW 7.2 km/h 11.1 km/h 98% 0.0 mm 0 W/m2
22:19 6.1 °C 5.8 °C 1012.1 hPa NW 6.1 km/h 11.1 km/h 98% 0.0 mm 0 W/m2
22:24 6.0 °C 5.7 °C 1012.1 hPa NW 3.5 km/h 9.7 km/h 98% 0.0 mm 0 W/m2
22:29 5.9 °C 5.8 °C 1012.1 hPa NNW 6.1 km/h 9.7 km/h 99% 0.0 mm 0 W/m2
22:34 5.9 °C 5.8 °C 1011.7 hPa NNW 3.5 km/h 7.2 km/h 99% 0.0 mm 0 W/m2
22:39 5.8 °C 5.7 °C 1012.1 hPa NW 3.5 km/h 7.2 km/h 99% 0.0 mm 0 W/m2
22:44 5.9 °C 5.8 °C 1011.7 hPa NNW 5.0 km/h 8.7 km/h 99% 0.0 mm 0 W/m2
22:49 6.0 °C 5.7 °C 1012.1 hPa NNW 7.2 km/h 9.7 km/h 98% 0.0 mm 0 W/m2
22:54 6.0 °C 5.7 °C 1012.1 hPa NW 6.1 km/h 11.1 km/h 98% 0.0 mm 0 W/m2
22:59 6.1 °C 5.8 °C 1011.7 hPa NW 5.0 km/h 11.1 km/h 98% 0.0 mm 0 W/m2
23:04 6.1 °C 5.8 °C 1012.1 hPa NNW 5.0 km/h 11.1 km/h 98% 0.0 mm 0 W/m2
23:09 6.1 °C 5.8 °C 1011.7 hPa NNW 7.2 km/h 11.1 km/h 98% 0.0 mm 0 W/m2
23:14 6.1 °C 5.8 °C 1011.7 hPa NW 7.2 km/h 11.1 km/h 98% 0.0 mm 0 W/m2
23:19 6.0 °C 5.7 °C 1011.7 hPa NW 5.0 km/h 11.1 km/h 98% 0.0 mm 0 W/m2
23:24 6.0 °C 5.7 °C 1011.7 hPa NNW 6.1 km/h 12.2 km/h 98% 0.0 mm 0 W/m2
23:29 5.9 °C 5.8 °C 1012.1 hPa NNW 6.1 km/h 12.2 km/h 99% 0.0 mm 0 W/m2
23:34 5.9 °C 5.8 °C 1012.1 hPa NNW 6.1 km/h 9.7 km/h 99% 0.0 mm 0 W/m2
23:39 5.8 °C 5.7 °C 1012.1 hPa NNW 6.1 km/h 12.2 km/h 99% 0.0 mm 0 W/m2
23:44 5.7 °C 5.6 °C 1011.7 hPa NNW 7.2 km/h 12.2 km/h 99% 0.0 mm 0 W/m2
23:49 5.7 °C 5.6 °C 1011.7 hPa NNW 6.1 km/h 12.2 km/h 99% 0.0 mm 0 W/m2
23:54 5.6 °C 5.4 °C 1012.1 hPa NNW 3.5 km/h 12.2 km/h 99% 0.0 mm 0 W/m2
23:59 5.6 °C 5.4 °C 1011.7 hPa NNW 6.1 km/h 8.7 km/h 99% 0.0 mm 0 W/m2
Northern Hawkes Bay. New Zealand Historic Data
Compliments of Weather Underground - 2.25 mb